Time;durP1;ratioP1;P1;durP2;ratioP2;P2;SDS_P1;SDS_P2;PMS_P1;PMS_P2;Temp;Humidity;BMP_temperature;BMP_pressure;BME280_temperature;BME280_humidity;BME280_pressure;Samples;Min_cycle;Max_cycle;Signal;HPM_P1;HPM_P2
2021/09/15 00:00:53;;;;;;;8.27;6.38;;;20.90;99.90;;;;;;5026822;28;20303;-69
2021/09/15 00:03:21;;;;;;;8.23;6.25;;;20.90;99.90;;;;;;5026315;28;20038;-69
2021/09/15 00:05:48;;;;;;;9.70;7.75;;;20.80;99.90;;;;;;5027023;28;20408;-68
2021/09/15 00:08:16;;;;;;;10.82;6.40;;;20.80;99.90;;;;;;5027923;28;20140;-68
2021/09/15 00:10:43;;;;;;;8.77;5.80;;;20.80;99.90;;;;;;5029158;28;20155;-68
2021/09/15 00:13:10;;;;;;;9.05;6.00;;;20.80;99.90;;;;;;5010283;28;20534;-68
2021/09/15 00:15:38;;;;;;;9.90;6.00;;;20.80;99.90;;;;;;5027028;28;20144;-68
2021/09/15 00:18:05;;;;;;;6.72;5.43;;;20.80;99.90;;;;;;5028041;28;20395;-69
2021/09/15 00:20:32;;;;;;;6.90;5.80;;;20.80;99.90;;;;;;5025527;28;20099;-69
2021/09/15 00:23:00;;;;;;;6.78;5.43;;;20.80;99.90;;;;;;5026098;28;20061;-68
2021/09/15 00:25:27;;;;;;;6.45;5.32;;;20.80;99.90;;;;;;5027491;28;20065;-68
2021/09/15 00:28:10;;;;;;;7.72;5.70;;;20.70;99.90;;;;;;5018637;28;20041;-68
2021/09/15 00:30:37;;;;;;;9.40;6.22;;;20.70;99.90;;;;;;5007308;28;20152;-68
2021/09/15 00:33:04;;;;;;;7.55;5.85;;;20.80;99.90;;;;;;5026400;28;20041;-69
2021/09/15 00:35:31;;;;;;;7.10;5.50;;;20.70;99.90;;;;;;5027302;28;20056;-69
2021/09/15 00:38:04;;;;;;;8.98;5.82;;;20.80;99.90;;;;;;5027705;28;20045;-68
2021/09/15 00:40:33;;;;;;;7.68;5.22;;;20.80;99.90;;;;;;5025930;28;20124;-68
2021/09/15 00:43:00;;;;;;;7.63;5.40;;;20.80;99.90;;;;;;5025037;28;20042;-68
2021/09/15 00:45:28;;;;;;;7.53;5.75;;;20.80;99.90;;;;;;5028082;28;20077;-68
2021/09/15 00:47:55;;;;;;;7.57;5.45;;;20.80;99.90;;;;;;5025752;28;20063;-68
2021/09/15 00:50:24;;;;;;;8.05;5.38;;;20.80;99.90;;;;;;5017571;28;20049;-68
2021/09/15 00:52:52;;;;;;;7.40;5.45;;;20.80;99.90;;;;;;5010360;28;20128;-68
2021/09/15 00:55:19;;;;;;;7.53;5.07;;;20.80;99.90;;;;;;5026261;28;20049;-68
2021/09/15 00:57:47;;;;;;;8.15;6.07;;;20.80;99.90;;;;;;5026908;28;20080;-68
2021/09/15 01:00:16;;;;;;;8.95;5.82;;;20.80;99.90;;;;;;5016813;28;20056;-68
2021/09/15 01:02:45;;;;;;;8.73;5.53;;;20.80;99.90;;;;;;5014270;28;20037;-69
2021/09/15 01:05:14;;;;;;;7.60;5.80;;;20.80;99.90;;;;;;5025352;28;20045;-69
2021/09/15 01:07:47;;;;;;;7.47;5.80;;;20.80;99.90;;;;;;5015901;28;20393;-68
2021/09/15 01:10:16;;;;;;;7.07;5.78;;;20.80;99.90;;;;;;5030618;28;20049;-68
2021/09/15 01:13:05;;;;;;;6.57;5.00;;;20.80;99.90;;;;;;5026875;28;20387;-69
2021/09/15 01:15:44;;;;;;;8.23;6.50;;;20.80;99.90;;;;;;5025678;28;20508;-68
2021/09/15 01:18:16;;;;;;;7.50;5.85;;;20.70;99.90;;;;;;5022535;28;20385;-68
2021/09/15 01:21:06;;;;;;;7.07;5.82;;;20.70;99.90;;;;;;5027473;28;20049;-68
2021/09/15 01:23:52;;;;;;;8.18;5.80;;;20.70;99.90;;;;;;5028700;28;20160;-68
2021/09/15 01:26:40;;;;;;;9.07;6.20;;;20.70;99.90;;;;;;5030121;28;20053;-68
2021/09/15 01:29:32;;;;;;;7.40;5.80;;;20.70;99.90;;;;;;5029934;28;20033;-68
2021/09/15 01:32:08;;;;;;;8.07;5.80;;;20.70;99.90;;;;;;5028431;28;20042;-68
2021/09/15 01:34:38;;;;;;;5.95;5.13;;;20.70;99.90;;;;;;5011944;28;20398;-68
2021/09/15 01:37:11;;;;;;;7.85;5.82;;;20.60;99.90;;;;;;5027993;28;20041;-68
2021/09/15 01:39:49;;;;;;;9.38;6.28;;;20.60;99.90;;;;;;5029494;28;20040;-68
2021/09/15 01:42:16;;;;;;;7.90;5.97;;;20.60;99.90;;;;;;5028393;28;20144;-68
2021/09/15 01:44:46;;;;;;;8.15;6.07;;;20.60;99.90;;;;;;5015878;28;20435;-68
2021/09/15 01:47:16;;;;;;;;;;;20.60;99.90;;;;;;5028581;28;20041;-68
2021/09/15 01:49:45;;;;;;;8.88;5.85;;;20.60;99.90;;;;;;5027789;28;19921;-68
2021/09/15 01:52:14;;;;;;;8.20;5.72;;;20.60;99.90;;;;;;5028460;28;20555;-68
2021/09/15 01:54:43;;;;;;;8.23;6.32;;;20.60;99.90;;;;;;5020142;28;20052;-69
2021/09/15 01:57:10;;;;;;;7.35;6.00;;;20.60;99.90;;;;;;5027159;28;20407;-68
2021/09/15 02:00:01;;;;;;;9.48;6.35;;;20.60;99.90;;;;;;5047327;28;20041;-68
2021/09/15 02:03:03;;;;;;;8.10;6.30;;;20.50;99.90;;;;;;5047878;28;20076;-68
2021/09/15 02:05:37;;;;;;;9.57;6.30;;;20.50;99.90;;;;;;5048694;28;20057;-68
2021/09/15 02:08:18;;;;;;;7.55;5.95;;;20.50;99.90;;;;;;5014314;28;20454;-68
2021/09/15 02:11:12;;;;;;;8.20;5.95;;;20.50;99.90;;;;;;5031969;28;20123;-68
2021/09/15 02:13:39;;;;;;;8.25;6.45;;;20.50;99.90;;;;;;5030136;28;20499;-69
2021/09/15 02:16:07;;;;;;;7.30;6.05;;;20.50;99.90;;;;;;5044465;28;20049;-69
2021/09/15 02:18:34;;;;;;;6.85;5.85;;;20.50;99.90;;;;;;5030177;28;20056;-69
2021/09/15 02:21:30;;;;;;;8.70;6.15;;;20.50;99.90;;;;;;5030322;28;20532;-68
2021/09/15 02:24:26;;;;;;;7.53;6.25;;;20.40;99.90;;;;;;5028900;28;20503;-68
2021/09/15 02:27:17;;;;;;;9.32;6.05;;;20.40;99.90;;;;;;5046444;28;20510;-68
2021/09/15 02:29:45;;;;;;;7.80;5.82;;;20.40;99.90;;;;;;5029308;28;20100;-68
2021/09/15 02:32:26;;;;;;;8.10;6.10;;;20.40;99.90;;;;;;5035117;28;20153;-68
2021/09/15 02:35:04;;;;;;;8.07;6.65;;;20.40;99.90;;;;;;5044324;28;20083;-68
2021/09/15 02:37:42;;;;;;;7.72;6.07;;;20.30;99.90;;;;;;5026453;28;20049;-68
2021/09/15 02:40:30;;;;;;;7.93;5.85;;;20.30;99.90;;;;;;5008795;28;20389;-68
2021/09/15 02:43:07;;;;;;;8.27;6.65;;;20.40;99.90;;;;;;5023653;28;20091;-68
2021/09/15 02:45:47;;;;;;;7.68;6.13;;;20.30;99.90;;;;;;5020433;28;20045;-68
2021/09/15 02:48:27;;;;;;;9.52;6.15;;;20.40;99.90;;;;;;5023279;28;20096;-68
2021/09/15 02:51:17;;;;;;;8.98;6.60;;;20.40;99.90;;;;;;5020647;28;20149;-68
2021/09/15 02:54:03;;;;;;;7.78;6.38;;;20.30;99.90;;;;;;5026855;28;20045;-68
2021/09/15 02:56:39;;;;;;;9.18;6.40;;;20.30;99.90;;;;;;5028752;28;20045;-68
2021/09/15 02:59:09;;;;;;;8.15;5.88;;;20.30;99.90;;;;;;5010226;28;20099;-68
2021/09/15 03:01:51;;;;;;;7.20;6.40;;;20.30;99.90;;;;;;5011726;28;20045;-68
2021/09/15 03:04:29;;;;;;;8.85;6.20;;;20.30;99.90;;;;;;5020072;28;20050;-68
2021/09/15 03:07:05;;;;;;;8.88;6.25;;;20.20;99.90;;;;;;5022174;28;20087;-68
2021/09/15 03:09:35;;;;;;;8.57;6.35;;;20.20;99.90;;;;;;5019591;28;20108;-68
2021/09/15 03:12:05;;;;;;;7.72;6.45;;;20.20;99.90;;;;;;5027817;28;20037;-68
2021/09/15 03:14:33;;;;;;;11.10;7.05;;;20.20;99.90;;;;;;5023517;28;20042;-68
2021/09/15 03:17:00;;;;;;;8.88;7.10;;;20.20;99.90;;;;;;5018897;28;20045;-68
2021/09/15 03:19:28;;;;;;;9.02;6.38;;;20.20;99.90;;;;;;5026857;28;20044;-68
2021/09/15 03:21:56;;;;;;;8.73;6.75;;;20.10;99.90;;;;;;5028419;28;20087;-68
2021/09/15 03:24:23;;;;;;;15.63;8.07;;;20.10;99.90;;;;;;5025180;28;20088;-68
2021/09/15 03:26:52;;;;;;;11.25;7.80;;;20.00;99.90;;;;;;5027436;28;20051;-68
2021/09/15 03:29:20;;;;;;;7.70;6.50;;;20.00;99.90;;;;;;5026410;28;20042;-68
2021/09/15 03:31:48;;;;;;;9.75;7.32;;;20.00;99.90;;;;;;5027525;28;20045;-68
2021/09/15 03:34:15;;;;;;;10.55;6.40;;;19.90;99.90;;;;;;5027901;28;20060;-68
2021/09/15 03:36:43;;;;;;;9.13;6.57;;;19.90;99.90;;;;;;5010585;28;20041;-68
2021/09/15 03:39:10;;;;;;;10.45;6.72;;;19.90;99.90;;;;;;5021957;28;20037;-68
2021/09/15 03:41:38;;;;;;;10.57;7.03;;;19.90;99.90;;;;;;5027451;28;20041;-68
2021/09/15 03:44:06;;;;;;;9.90;6.38;;;19.90;99.90;;;;;;5025135;28;20041;-68
2021/09/15 03:46:33;;;;;;;9.10;7.00;;;19.90;99.90;;;;;;5027117;28;20492;-68
2021/09/15 03:49:01;;;;;;;9.68;7.65;;;19.90;99.90;;;;;;5025900;28;20469;-68
2021/09/15 03:51:29;;;;;;;13.25;9.75;;;19.90;99.90;;;;;;5026189;28;20045;-68
2021/09/15 03:53:56;;;;;;;14.45;10.80;;;19.90;99.90;;;;;;5024710;28;20044;-68
2021/09/15 03:56:24;;;;;;;9.95;8.32;;;19.90;99.90;;;;;;5027092;28;20060;-68
2021/09/15 03:58:53;;;;;;;9.43;7.32;;;19.90;99.90;;;;;;5025313;28;20475;-68
2021/09/15 04:01:21;;;;;;;10.10;7.20;;;19.90;99.90;;;;;;5012211;28;20038;-68
2021/09/15 04:03:48;;;;;;;12.35;10.48;;;19.90;99.90;;;;;;5020846;28;20095;-68
2021/09/15 04:06:15;;;;;;;11.80;9.25;;;19.80;99.90;;;;;;5021706;28;20087;-68
2021/09/15 04:08:43;;;;;;;12.55;10.88;;;19.90;99.90;;;;;;5026687;28;20120;-68
2021/09/15 04:11:10;;;;;;;12.65;8.63;;;19.90;99.90;;;;;;5026694;28;20042;-68
2021/09/15 04:13:38;;;;;;;10.40;7.65;;;19.90;99.90;;;;;;5010925;28;20140;-68
2021/09/15 04:16:05;;;;;;;12.38;9.85;;;19.90;99.90;;;;;;5026255;28;20488;-68
2021/09/15 04:18:34;;;;;;;13.77;10.95;;;19.90;99.90;;;;;;5027476;28;20042;-68
2021/09/15 04:21:02;;;;;;;13.23;9.52;;;19.90;99.90;;;;;;5026852;28;20088;-68
2021/09/15 04:23:36;;;;;;;8.73;7.00;;;19.90;99.90;;;;;;5003597;28;20535;-68
2021/09/15 04:31:36;;;;;;;10.27;7.80;;;19.90;99.90;;;;;;5005912;28;20077;-68
2021/09/15 04:34:04;;;;;;;12.65;8.95;;;19.90;99.90;;;;;;5018454;28;20049;-68
2021/09/15 04:36:47;;;;;;;10.48;8.10;;;19.90;99.90;;;;;;4996753;28;20093;-68
2021/09/15 04:39:15;;;;;;;9.30;7.40;;;19.90;99.90;;;;;;5026847;28;20104;-68
2021/09/15 04:41:42;;;;;;;10.40;7.82;;;19.90;99.90;;;;;;5019163;28;20065;-68
2021/09/15 04:44:10;;;;;;;10.00;8.02;;;19.90;99.90;;;;;;5019884;28;20117;-68
2021/09/15 04:46:38;;;;;;;9.95;7.53;;;19.90;99.90;;;;;;5009031;28;20526;-68
2021/09/15 04:49:06;;;;;;;9.63;7.05;;;19.80;99.90;;;;;;5025092;28;20045;-68
2021/09/15 04:51:36;;;;;;;10.38;8.02;;;19.80;99.90;;;;;;5026979;28;20057;-68
2021/09/15 04:54:07;;;;;;;12.90;8.82;;;19.80;99.90;;;;;;5024607;28;20407;-68
2021/09/15 04:56:37;;;;;;;11.65;8.57;;;19.80;99.90;;;;;;5028598;28;20044;-68
2021/09/15 04:59:04;;;;;;;11.68;8.35;;;19.80;99.90;;;;;;5029616;28;20352;-68
2021/09/15 05:01:31;;;;;;;12.32;8.82;;;19.70;99.90;;;;;;5028003;28;20049;-68
2021/09/15 05:03:59;;;;;;;14.02;10.13;;;19.70;99.90;;;;;;5013558;28;20080;-68
2021/09/15 05:06:26;;;;;;;13.73;8.77;;;19.70;99.90;;;;;;5012545;28;20400;-68
2021/09/15 05:08:54;;;;;;;12.60;8.15;;;19.70;99.90;;;;;;4985033;28;20481;-68
2021/09/15 05:11:21;;;;;;;11.43;7.25;;;19.70;99.90;;;;;;4997570;28;20072;-67
2021/09/15 05:13:49;;;;;;;12.45;7.97;;;19.70;99.90;;;;;;5028871;28;20045;-69
2021/09/15 05:16:16;;;;;;;11.10;8.02;;;19.70;99.90;;;;;;5029874;28;20116;-69
2021/09/15 05:18:43;;;;;;;10.35;7.13;;;19.70;99.90;;;;;;5029064;28;20499;-69
2021/09/15 05:21:11;;;;;;;9.10;7.40;;;19.80;99.90;;;;;;5013142;28;20470;-68
2021/09/15 05:23:39;;;;;;;10.95;7.25;;;19.80;99.90;;;;;;5029110;28;20053;-68
2021/09/15 05:26:07;;;;;;;9.45;7.45;;;19.80;99.90;;;;;;5028451;28;20037;-68
2021/09/15 05:28:35;;;;;;;12.10;8.27;;;19.80;99.90;;;;;;5012286;28;20059;-68
2021/09/15 05:31:03;;;;;;;12.73;8.07;;;19.90;99.90;;;;;;5011190;28;20050;-68
2021/09/15 05:33:31;;;;;;;10.18;8.20;;;19.90;99.90;;;;;;5013178;28;20038;-68
2021/09/15 05:35:59;;;;;;;10.25;8.38;;;19.90;99.90;;;;;;5028697;28;20095;-68
2021/09/15 05:38:27;;;;;;;11.73;8.55;;;19.90;99.90;;;;;;5029861;28;20053;-68
2021/09/15 05:41:10;;;;;;;14.35;10.90;;;19.90;99.90;;;;;;5027847;28;20484;-68
2021/09/15 05:43:37;;;;;;;9.90;8.05;;;19.90;99.90;;;;;;5021753;28;20056;-68
2021/09/15 05:46:07;;;;;;;11.50;7.68;;;19.90;99.90;;;;;;5023662;28;20059;-68
2021/09/15 05:48:34;;;;;;;9.88;7.47;;;20.00;99.90;;;;;;5012043;28;20486;-68
2021/09/15 05:51:02;;;;;;;9.90;7.95;;;20.00;99.90;;;;;;5027605;28;20050;-68
2021/09/15 05:53:31;;;;;;;10.88;8.35;;;20.10;99.90;;;;;;4998093;28;20054;-68
2021/09/15 05:55:58;;;;;;;13.13;8.23;;;20.00;99.90;;;;;;5017115;28;20464;-68
2021/09/15 05:58:26;;;;;;;12.25;8.45;;;20.10;99.90;;;;;;5029668;28;20513;-68
2021/09/15 06:00:53;;;;;;;14.80;7.85;;;20.10;99.90;;;;;;5011064;28;20111;-68
2021/09/15 06:03:21;;;;;;;16.02;8.93;;;20.20;99.90;;;;;;5020561;28;20057;-68
2021/09/15 06:06:07;;;;;;;16.75;8.85;;;20.20;99.90;;;;;;5027699;28;20099;-68
2021/09/15 06:08:34;;;;;;;11.13;7.80;;;20.30;99.90;;;;;;5002844;28;20037;-68
2021/09/15 06:11:01;;;;;;;13.75;8.13;;;20.30;99.90;;;;;;5033294;28;20399;-68
2021/09/15 06:13:29;;;;;;;9.98;8.07;;;20.40;99.90;;;;;;5027565;28;20080;-68
2021/09/15 06:15:56;;;;;;;12.20;8.27;;;20.30;99.90;;;;;;5009569;28;20048;-68
2021/09/15 06:18:25;;;;;;;17.27;9.02;;;20.30;99.90;;;;;;5027016;28;20037;-68
2021/09/15 06:21:11;;;;;;;10.90;8.20;;;20.30;99.90;;;;;;5030672;28;20113;-67
2021/09/15 06:24:03;;;;;;;11.63;7.80;;;20.20;99.90;;;;;;5026312;28;20057;-67
2021/09/15 06:26:31;;;;;;;11.75;8.40;;;20.20;99.90;;;;;;5028321;28;20506;-67
2021/09/15 06:28:59;;;;;;;12.40;7.97;;;20.20;99.90;;;;;;5028721;28;20045;-67
2021/09/15 06:31:26;;;;;;;9.70;8.10;;;20.20;99.90;;;;;;5027728;28;20159;-67
2021/09/15 06:33:53;;;;;;;11.85;8.40;;;20.20;99.90;;;;;;5029387;28;20056;-68
2021/09/15 06:36:21;;;;;;;11.82;8.80;;;20.20;99.90;;;;;;5026847;28;20442;-67
2021/09/15 06:38:49;;;;;;;19.67;9.45;;;20.20;99.90;;;;;;5020691;28;20053;-67
2021/09/15 06:41:17;;;;;;;13.77;9.32;;;20.30;99.90;;;;;;5011578;28;20048;-67
2021/09/15 06:43:45;;;;;;;11.48;8.63;;;20.40;99.90;;;;;;5027359;28;20037;-67
2021/09/15 06:46:12;;;;;;;13.23;9.00;;;20.40;99.90;;;;;;5027962;28;20041;-67
2021/09/15 06:48:40;;;;;;;12.60;8.82;;;20.40;99.90;;;;;;5025841;28;20054;-67
2021/09/15 06:51:07;;;;;;;13.95;9.30;;;20.50;99.90;;;;;;5004704;28;20205;-67
2021/09/15 06:53:35;;;;;;;12.68;8.43;;;20.50;99.90;;;;;;5022436;28;20050;-67
2021/09/15 06:56:03;;;;;;;11.27;8.77;;;20.60;99.90;;;;;;5028428;28;20045;-67
2021/09/15 06:58:32;;;;;;;10.57;8.18;;;20.70;99.90;;;;;;5002845;28;20057;-67
2021/09/15 07:01:00;;;;;;;11.85;8.70;;;20.70;99.90;;;;;;5027762;28;20041;-67
2021/09/15 07:03:27;;;;;;;10.80;8.07;;;20.60;99.90;;;;;;5028754;28;20038;-67
2021/09/15 07:05:54;;;;;;;12.20;9.07;;;20.60;99.90;;;;;;5028243;28;20051;-67
2021/09/15 07:08:22;;;;;;;13.07;9.02;;;20.60;99.90;;;;;;5021475;28;20041;-67
2021/09/15 07:10:49;;;;;;;10.00;8.45;;;20.60;99.90;;;;;;5025762;28;20043;-68
2021/09/15 07:13:16;;;;;;;11.40;9.65;;;20.60;99.90;;;;;;5023789;28;20048;-68
2021/09/15 07:15:44;;;;;;;14.48;9.00;;;20.60;99.90;;;;;;5023209;28;20041;-67
2021/09/15 07:18:12;;;;;;;11.23;8.55;;;20.60;99.90;;;;;;5026663;28;20507;-67
2021/09/15 07:20:40;;;;;;;14.93;8.70;;;20.60;99.90;;;;;;5025816;28;20045;-67
2021/09/15 07:23:09;;;;;;;11.43;9.13;;;20.60;99.90;;;;;;5010333;28;20045;-67
2021/09/15 07:25:36;;;;;;;13.45;9.20;;;20.70;99.90;;;;;;5010408;28;20121;-68
2021/09/15 07:28:03;;;;;;;16.58;9.93;;;20.70;99.90;;;;;;5029661;28;20045;-68
2021/09/15 07:30:31;;;;;;;14.18;8.55;;;20.80;99.90;;;;;;5028309;28;20042;-68
2021/09/15 07:32:58;;;;;;;13.13;8.75;;;20.80;99.90;;;;;;5028254;28;20041;-68
2021/09/15 07:35:25;;;;;;;12.57;8.68;;;20.70;99.90;;;;;;5009885;28;20037;-68
2021/09/15 07:37:52;;;;;;;14.15;8.95;;;20.80;99.90;;;;;;5026516;28;20091;-68
2021/09/15 07:40:20;;;;;;;13.85;9.70;;;21.00;99.90;;;;;;5019599;28;20132;-68
2021/09/15 07:42:47;;;;;;;13.60;9.32;;;21.10;99.90;;;;;;5025384;28;20041;-68
2021/09/15 07:45:15;;;;;;;11.23;9.27;;;21.10;99.90;;;;;;5026673;28;20071;-68
2021/09/15 07:47:43;;;;;;;11.15;8.95;;;21.20;99.90;;;;;;5027237;28;20041;-68
2021/09/15 07:50:11;;;;;;;11.30;9.40;;;21.30;99.90;;;;;;5023661;28;20567;-68
2021/09/15 07:52:38;;;;;;;12.38;9.32;;;21.40;99.90;;;;;;5026207;28;20553;-68
2021/09/15 07:55:07;;;;;;;11.82;9.45;;;21.40;99.90;;;;;;5026943;28;20045;-67
2021/09/15 07:57:35;;;;;;;12.02;8.88;;;21.40;99.90;;;;;;5028943;28;20053;-67
2021/09/15 08:00:04;;;;;;;17.73;9.65;;;21.60;99.90;;;;;;5025399;28;20076;-68
2021/09/15 08:02:39;;;;;;;15.50;9.80;;;21.40;99.90;;;;;;5012871;28;20033;-67
2021/09/15 08:05:06;;;;;;;11.48;9.18;;;21.40;99.90;;;;;;5028191;28;20452;-68
2021/09/15 08:07:34;;;;;;;15.80;9.70;;;21.50;99.90;;;;;;5029045;28;20045;-67
2021/09/15 08:10:04;;;;;;;12.55;9.68;;;21.60;99.90;;;;;;5026000;28;20153;-67
2021/09/15 08:12:31;;;;;;;14.20;9.95;;;21.60;99.90;;;;;;5028527;28;20132;-68
2021/09/15 08:14:58;;;;;;;11.35;9.95;;;21.60;99.90;;;;;;5021466;28;20451;-68
2021/09/15 08:17:26;;;;;;;14.00;9.93;;;21.60;99.90;;;;;;5021263;28;20400;-68
2021/09/15 08:19:53;;;;;;;13.90;9.95;;;21.60;99.90;;;;;;5026377;28;20116;-68
2021/09/15 08:22:20;;;;;;;13.43;10.27;;;21.70;99.90;;;;;;5028898;28;20053;-68
2021/09/15 08:24:48;;;;;;;12.23;9.75;;;21.80;99.90;;;;;;5027754;28;20042;-68
2021/09/15 08:27:16;;;;;;;11.48;9.13;;;21.90;99.90;;;;;;5026907;28;20068;-68
2021/09/15 08:29:43;;;;;;;14.40;10.30;;;22.00;99.90;;;;;;5010503;28;20395;-68
2021/09/15 08:32:10;;;;;;;12.15;10.63;;;22.10;99.90;;;;;;5016016;28;20051;-68
2021/09/15 08:34:37;;;;;;;14.57;11.40;;;22.00;99.90;;;;;;5032379;28;20046;-68
2021/09/15 08:37:05;;;;;;;13.50;10.05;;;22.00;99.90;;;;;;5023179;28;20049;-68
2021/09/15 08:39:32;;;;;;;14.40;11.70;;;22.10;99.90;;;;;;5007960;28;20041;-68
2021/09/15 08:42:00;;;;;;;16.40;10.43;;;22.30;99.90;;;;;;5029625;28;20049;-68
2021/09/15 08:44:27;;;;;;;14.57;10.70;;;22.50;99.90;;;;;;5009860;28;20116;-68
2021/09/15 08:46:57;;;;;;;11.13;9.23;;;22.50;99.90;;;;;;5029471;28;20068;-68
2021/09/15 08:49:29;;;;;;;13.90;9.38;;;22.70;99.90;;;;;;5028218;28;20792;-68
2021/09/15 08:51:57;;;;;;;14.80;9.40;;;23.00;99.90;;;;;;5031894;28;20364;-68
2021/09/15 08:54:24;;;;;;;15.48;9.77;;;23.20;99.90;;;;;;5030330;28;20045;-68
2021/09/15 08:56:51;;;;;;;10.30;8.82;;;23.50;99.90;;;;;;5028837;28;20573;-68
2021/09/15 08:59:19;;;;;;;11.70;9.57;;;23.60;99.90;;;;;;5029430;28;20381;-67
2021/09/15 09:01:46;;;;;;;12.55;9.63;;;23.90;99.90;;;;;;5030901;28;20514;-67
2021/09/15 09:04:16;;;;;;;13.00;9.10;;;24.10;99.90;;;;;;5014634;28;20034;-67
2021/09/15 09:06:47;;;;;;;11.95;9.60;;;24.20;99.90;;;;;;5013499;28;20101;-68
2021/09/15 09:09:15;;;;;;;14.02;10.35;;;24.40;99.90;;;;;;5031927;28;20079;-67
2021/09/15 09:11:44;;;;;;;14.27;10.02;;;24.00;99.90;;;;;;5041781;28;20053;-67
2021/09/15 09:14:12;;;;;;;13.93;9.45;;;24.00;99.90;;;;;;5029383;28;20045;-67
2021/09/15 09:16:49;;;;;;;12.57;9.88;;;23.90;99.90;;;;;;5042762;28;20084;-67
2021/09/15 09:19:21;;;;;;;10.77;9.02;;;23.90;99.90;;;;;;5024071;28;20045;-68
2021/09/15 09:21:50;;;;;;;11.20;8.95;;;23.90;99.90;;;;;;5019517;28;20496;-67
2021/09/15 09:24:21;;;;;;;12.52;8.80;;;23.50;99.90;;;;;;5029203;28;20049;-68
2021/09/15 09:26:52;;;;;;;10.52;8.07;;;23.40;99.90;;;;;;5011522;28;20128;-67
2021/09/15 09:29:27;;;;;;;12.18;8.30;;;23.40;99.90;;;;;;5007489;28;20156;-68
2021/09/15 09:32:10;;;;;;;10.55;8.98;;;23.40;99.90;;;;;;5028154;28;20049;-68
2021/09/15 09:34:45;;;;;;;11.77;7.97;;;23.40;99.90;;;;;;5027880;28;20132;-67
2021/09/15 09:37:20;;;;;;;13.20;9.30;;;23.30;99.90;;;;;;5026226;28;20578;-67
2021/09/15 09:39:57;;;;;;;12.27;9.10;;;23.20;99.90;;;;;;5007447;28;20145;-68
2021/09/15 09:42:25;;;;;;;14.30;10.48;;;23.30;99.90;;;;;;5022309;28;20117;-67
2021/09/15 09:45:11;;;;;;;13.35;10.02;;;23.20;99.90;;;;;;5024177;28;20050;-67
2021/09/15 09:47:39;;;;;;;15.20;10.25;;;23.00;99.90;;;;;;5029848;28;20055;-67
2021/09/15 09:50:10;;;;;;;15.38;10.70;;;23.10;99.90;;;;;;5029415;28;20091;-67
2021/09/15 09:53:02;;;;;;;12.52;10.32;;;22.90;99.90;;;;;;5041706;28;20054;-67
2021/09/15 09:55:37;;;;;;;18.55;12.05;;;22.90;99.90;;;;;;5007884;28;20057;-67
2021/09/15 09:58:07;;;;;;;11.75;8.80;;;22.80;99.90;;;;;;5012817;28;20148;-67
2021/09/15 10:00:38;;;;;;;12.18;9.55;;;22.60;99.90;;;;;;5028594;28;20104;-68
2021/09/15 10:03:07;;;;;;;11.55;9.63;;;22.60;99.90;;;;;;5029144;28;20568;-68
2021/09/15 10:05:35;;;;;;;12.30;9.40;;;22.60;99.90;;;;;;5030656;28;20049;-68
2021/09/15 10:08:03;;;;;;;15.45;10.10;;;22.50;99.90;;;;;;5030207;28;20033;-68
2021/09/15 10:10:30;;;;;;;12.30;9.30;;;22.40;99.90;;;;;;5036409;28;20168;-68
2021/09/15 10:12:58;;;;;;;11.27;9.35;;;22.50;99.90;;;;;;5012712;28;20683;-68
2021/09/15 10:15:26;;;;;;;16.05;10.10;;;22.50;99.90;;;;;;5030714;28;20801;-68
2021/09/15 10:17:55;;;;;;;11.80;9.80;;;22.50;99.90;;;;;;5031407;28;20068;-68
2021/09/15 10:20:28;;;;;;;13.05;9.38;;;22.50;99.90;;;;;;5031527;28;20065;-68
2021/09/15 10:22:58;;;;;;;14.75;11.65;;;22.60;99.90;;;;;;5028656;28;20044;-68
2021/09/15 10:25:40;;;;;;;12.05;9.52;;;22.70;99.90;;;;;;5025192;28;20038;-68
2021/09/15 10:28:09;;;;;;;12.02;9.45;;;22.80;99.90;;;;;;5029449;28;20069;-68
2021/09/15 10:30:54;;;;;;;13.68;10.45;;;22.90;99.90;;;;;;5030262;28;20136;-68
2021/09/15 10:33:37;;;;;;;13.85;10.00;;;23.00;99.90;;;;;;5030374;28;20049;-68
2021/09/15 10:36:16;;;;;;;9.73;7.65;;;23.10;99.90;;;;;;5031483;28;20042;-68
2021/09/15 10:38:54;;;;;;;11.77;7.70;;;23.20;99.90;;;;;;5028478;28;20050;-68
2021/09/15 10:41:33;;;;;;;11.48;9.02;;;23.30;99.90;;;;;;5027002;28;20151;-68
2021/09/15 10:44:10;;;;;;;13.75;9.45;;;23.40;99.90;;;;;;5015266;28;20104;-68
2021/09/15 10:46:39;;;;;;;12.43;7.97;;;23.50;99.90;;;;;;5027762;28;20486;-69
2021/09/15 10:49:24;;;;;;;12.68;7.63;;;23.50;99.90;;;;;;5029780;28;20045;-68
2021/09/15 10:52:07;;;;;;;12.15;9.95;;;23.30;99.90;;;;;;5043943;28;20068;-68
2021/09/15 10:54:53;;;;;;;13.35;9.70;;;23.30;99.90;;;;;;5020772;28;20049;-68
2021/09/15 10:57:32;;;;;;;11.95;8.75;;;23.30;99.90;;;;;;5029336;28;20037;-68
2021/09/15 11:00:06;;;;;;;11.05;8.88;;;23.20;99.90;;;;;;5031006;28;20077;-68
2021/09/15 11:02:38;;;;;;;13.93;9.55;;;23.20;99.90;;;;;;5029029;28;20045;-68
2021/09/15 11:05:26;;;;;;;12.77;9.18;;;23.30;99.90;;;;;;5030206;28;20415;-68
2021/09/15 11:07:54;;;;;;;12.70;8.98;;;23.30;99.90;;;;;;5027599;28;20076;-67
2021/09/15 11:10:31;;;;;;;12.88;9.25;;;23.40;99.90;;;;;;5032296;28;20080;-67
2021/09/15 11:12:59;;;;;;;15.65;9.32;;;23.40;99.90;;;;;;5027369;28;20404;-68
2021/09/15 11:15:47;;;;;;;14.18;8.98;;;23.20;99.90;;;;;;5028442;28;20055;-68
2021/09/15 11:18:27;;;;;;;14.93;10.20;;;23.10;99.90;;;;;;5018950;28;20065;-68
2021/09/15 11:21:00;;;;;;;;;;;23.10;99.90;;;;;;5027794;28;20046;-68
2021/09/15 11:23:29;;;;;;;12.18;9.02;;;23.10;99.90;;;;;;5027323;28;19959;-67
2021/09/15 11:25:59;;;;;;;14.35;9.02;;;23.00;99.90;;;;;;5029579;28;20072;-67
2021/09/15 11:28:27;;;;;;;11.70;8.57;;;22.80;99.90;;;;;;5025442;28;20083;-67
2021/09/15 11:31:00;;;;;;;12.02;8.38;;;22.70;99.90;;;;;;5021968;28;20049;-68
2021/09/15 11:33:32;;;;;;;11.82;8.48;;;22.60;99.90;;;;;;5024444;28;20180;-68
2021/09/15 11:36:00;;;;;;;;;;;22.70;99.90;;;;;;5029465;28;20143;-68
2021/09/15 11:38:31;;;;;;;12.75;7.95;;;22.70;99.90;;;;;;5024824;28;19931;-68
2021/09/15 11:41:15;;;;;;;13.80;8.88;;;22.70;99.90;;;;;;5027542;28;20111;-68
2021/09/15 11:43:45;;;;;;;13.55;9.23;;;22.60;99.90;;;;;;5013820;28;20583;-68
2021/09/15 11:46:14;;;;;;;12.88;9.32;;;22.60;99.90;;;;;;5022492;28;20698;-68
2021/09/15 11:48:43;;;;;;;14.27;8.82;;;22.70;99.90;;;;;;5027773;28;20400;-68
2021/09/15 11:51:16;;;;;;;15.77;9.68;;;22.70;99.90;;;;;;4999875;28;20390;-68
2021/09/15 11:53:51;;;;;;;14.23;8.38;;;22.70;99.90;;;;;;5012312;28;20563;-68
2021/09/15 11:56:29;;;;;;;14.10;8.35;;;22.70;99.90;;;;;;5026026;28;20916;-68
2021/09/15 11:58:57;;;;;;;10.57;7.50;;;22.70;99.90;;;;;;5025705;28;20045;-68
2021/09/15 12:01:27;;;;;;;12.43;8.10;;;22.70;99.90;;;;;;5029836;28;20124;-68
2021/09/15 12:03:58;;;;;;;12.00;7.80;;;22.80;99.90;;;;;;5027322;28;20338;-68
2021/09/15 12:06:26;;;;;;;16.92;8.50;;;22.80;99.90;;;;;;5029823;28;20041;-67
2021/09/15 12:08:57;;;;;;;14.80;7.72;;;22.70;99.90;;;;;;5028521;28;20538;-67
2021/09/15 12:11:41;;;;;;;14.15;7.75;;;22.80;99.90;;;;;;5033118;28;20056;-67
2021/09/15 12:14:10;;;;;;;10.52;8.23;;;22.90;99.90;;;;;;5028277;28;20059;-68
2021/09/15 12:16:39;;;;;;;10.98;7.47;;;22.90;99.90;;;;;;5029302;28;20049;-68
2021/09/15 12:19:33;;;;;;;11.60;7.50;;;22.90;99.90;;;;;;5037372;28;20076;-68
2021/09/15 12:22:02;;;;;;;14.52;7.18;;;23.00;99.90;;;;;;5030293;28;20046;-68
2021/09/15 12:24:29;;;;;;;12.30;7.30;;;22.90;99.90;;;;;;5036136;28;20677;-68
2021/09/15 12:27:12;;;;;;;10.65;6.55;;;22.90;99.90;;;;;;5034953;28;20053;-68
2021/09/15 12:29:40;;;;;;;10.93;6.43;;;22.90;99.90;;;;;;5027672;28;20050;-67
2021/09/15 12:32:07;;;;;;;12.85;6.65;;;22.90;99.90;;;;;;5030306;28;20112;-67
2021/09/15 12:34:36;;;;;;;16.00;7.72;;;22.80;99.90;;;;;;5016344;28;20065;-68
2021/09/15 12:37:16;;;;;;;16.77;7.78;;;22.80;99.90;;;;;;5029839;28;20041;-68
2021/09/15 12:40:17;;;;;;;10.63;8.27;;;23.00;99.90;;;;;;5027225;28;20045;-68
2021/09/15 12:42:59;;;;;;;13.10;9.35;;;23.20;99.90;;;;;;5024419;28;20530;-67
2021/09/15 12:45:27;;;;;;;14.00;9.48;;;23.10;99.90;;;;;;5026118;28;20140;-67
2021/09/15 12:47:54;;;;;;;12.98;9.27;;;23.10;99.90;;;;;;5028941;28;20400;-67
2021/09/15 12:50:31;;;;;;;14.15;8.77;;;23.10;99.90;;;;;;5029383;28;20488;-68
2021/09/15 12:53:11;;;;;;;14.13;9.63;;;23.10;99.90;;;;;;5027216;28;20045;-67
2021/09/15 12:55:45;;;;;;;12.73;9.30;;;23.20;99.90;;;;;;5008879;28;20387;-67
2021/09/15 12:58:33;;;;;;;14.45;8.73;;;23.40;99.90;;;;;;5027528;28;20220;-67
2021/09/15 13:01:00;;;;;;;13.38;9.40;;;23.80;99.90;;;;;;5026220;28;20531;-67
2021/09/15 13:03:41;;;;;;;11.88;8.65;;;24.70;99.90;;;;;;5028502;28;20056;-68
2021/09/15 13:06:08;;;;;;;11.10;8.65;;;25.30;99.90;;;;;;5029299;28;20454;-68
2021/09/15 13:08:49;;;;;;;14.95;8.57;;;25.80;99.90;;;;;;5037326;28;20145;-68